Time;durP1;ratioP1;P1;durP2;ratioP2;P2;SDS_P1;SDS_P2;PMS_P1;PMS_P2;Temp;Humidity;BMP_temperature;BMP_pressure;BME280_temperature;BME280_humidity;BME280_pressure;Samples;Min_cycle;Max_cycle;Signal;HPM_P1;HPM_P2
2022/01/13 00:00:19;;;;;;;3.03;1.67;;;3.30;59.50;;;;;;5054287;28;20036;-73
2022/01/13 00:02:45;;;;;;;2.07;1.70;;;3.30;59.20;;;;;;5054831;28;20108;-73
2022/01/13 00:05:12;;;;;;;2.23;1.60;;;3.30;59.30;;;;;;5036085;28;20020;-73
2022/01/13 00:07:38;;;;;;;1.53;1.43;;;3.30;59.70;;;;;;5054644;28;20103;-73
2022/01/13 00:10:05;;;;;;;1.60;1.50;;;3.30;59.90;;;;;;5036564;28;20040;-73
2022/01/13 00:12:36;;;;;;;1.63;1.47;;;3.30;59.80;;;;;;5053802;28;20076;-73
2022/01/13 00:15:20;;;;;;;1.67;1.57;;;3.30;59.60;;;;;;5054539;28;20059;-73
2022/01/13 00:23:38;;;;;;;1.60;1.37;;;3.30;59.40;;;;;;5035802;28;20044;-73
2022/01/13 00:25:34;;;;;;;1.40;1.30;;;3.30;59.60;;;;;;5038303;28;20037;-73
2022/01/13 00:28:06;;;;;;;2.13;1.67;;;3.30;59.80;;;;;;5035330;28;20029;-73
2022/01/13 00:30:32;;;;;;;1.63;1.53;;;3.30;60.10;;;;;;5033151;28;20053;-73
2022/01/13 00:32:58;;;;;;;1.97;1.40;;;3.30;60.10;;;;;;5054092;28;20454;-73
2022/01/13 00:35:24;;;;;;;1.40;1.30;;;3.30;60.20;;;;;;5036148;28;20036;-73
2022/01/13 00:37:49;;;;;;;1.43;1.33;;;3.30;60.00;;;;;;5054176;28;20394;-73
2022/01/13 00:40:15;;;;;;;1.40;1.30;;;3.20;59.50;;;;;;5053820;28;20125;-73
2022/01/13 00:42:41;;;;;;;2.23;1.20;;;3.20;59.90;;;;;;5036004;28;20029;-73
2022/01/13 00:45:09;;;;;;;2.43;1.30;;;3.20;59.50;;;;;;5032430;28;20049;-73
2022/01/13 00:47:36;;;;;;;1.70;1.40;;;3.20;59.40;;;;;;5034943;28;20025;-73
2022/01/13 00:50:04;;;;;;;1.70;1.60;;;3.20;59.30;;;;;;5016048;28;20411;-73
2022/01/13 00:52:30;;;;;;;1.47;1.37;;;3.20;60.10;;;;;;5025935;28;20021;-73
2022/01/13 00:54:56;;;;;;;1.83;1.43;;;3.20;60.20;;;;;;5048747;28;20021;-73
2022/01/13 00:57:22;;;;;;;1.27;1.20;;;3.10;60.20;;;;;;5048640;28;20055;-73
2022/01/13 00:59:48;;;;;;;1.50;1.40;;;3.10;60.30;;;;;;5053584;28;20486;-73
2022/01/13 01:02:14;;;;;;;2.03;1.63;;;3.10;60.30;;;;;;5051744;28;20056;-73
2022/01/13 01:04:40;;;;;;;1.87;1.77;;;3.10;60.50;;;;;;5035795;28;20029;-73
2022/01/13 01:07:06;;;;;;;1.67;1.57;;;3.00;60.40;;;;;;5053330;28;20029;-73
2022/01/13 01:09:47;;;;;;;2.60;1.33;;;3.10;59.90;;;;;;5053787;28;20076;-73
2022/01/13 01:12:13;;;;;;;2.83;1.50;;;3.00;59.50;;;;;;5052915;28;20120;-73
2022/01/13 01:14:45;;;;;;;1.87;1.60;;;3.00;59.90;;;;;;5022100;28;20531;-73
2022/01/13 01:17:14;;;;;;;;;;;3.00;59.80;;;;;;5016084;28;20029;-73
2022/01/13 01:19:44;;;;;;;1.33;1.23;;;3.00;60.40;;;;;;5045939;28;19962;-73
2022/01/13 01:22:34;;;;;;;1.97;1.40;;;2.90;60.60;;;;;;5053240;28;20406;-73
2022/01/13 01:25:30;;;;;;;2.17;1.13;;;2.90;60.70;;;;;;5035291;28;20029;-73
2022/01/13 01:27:51;;;;;;;2.77;1.50;;;2.90;61.00;;;;;;5052936;28;20033;-73
2022/01/13 01:32:52;;;;;;;1.23;1.13;;;2.80;62.70;;;;;;5052624;28;20029;-73
2022/01/13 01:35:19;;;;;;;1.77;1.67;;;2.70;62.20;;;;;;5035479;28;20434;-73
2022/01/13 01:37:45;;;;;;;1.60;1.30;;;2.70;62.00;;;;;;5032935;28;20029;-73
2022/01/13 01:40:13;;;;;;;1.97;1.77;;;2.70;62.40;;;;;;5033012;28;20498;-73
2022/01/13 01:42:39;;;;;;;1.87;1.57;;;2.70;62.70;;;;;;5034229;28;20471;-73
2022/01/13 01:45:07;;;;;;;1.60;1.50;;;2.50;64.90;;;;;;5034979;28;20045;-73
2022/01/13 01:47:34;;;;;;;1.63;1.27;;;2.50;64.90;;;;;;5015570;28;20121;-73
2022/01/13 01:50:10;;;;;;;1.57;1.47;;;2.50;64.50;;;;;;5048192;28;20032;-74
2022/01/13 01:52:36;;;;;;;1.60;1.50;;;2.50;64.80;;;;;;5035837;28;20490;-73
2022/01/13 01:55:03;;;;;;;2.07;1.70;;;2.40;64.50;;;;;;5053353;28;20052;-73
2022/01/13 01:57:29;;;;;;;1.43;1.20;;;2.40;64.20;;;;;;5051037;28;20021;-73
2022/01/13 01:59:55;;;;;;;1.50;1.23;;;2.50;63.70;;;;;;5042559;28;20045;-73
2022/01/13 02:02:22;;;;;;;3.17;1.50;;;2.60;64.00;;;;;;5031203;28;20078;-73
2022/01/13 02:04:48;;;;;;;2.10;1.40;;;2.50;62.90;;;;;;5024041;28;20461;-73
2022/01/13 02:07:14;;;;;;;137.77;68.53;;;2.60;64.10;;;;;;5044789;28;20071;-78
2022/01/13 02:09:43;;;;;;;8.87;6.43;;;2.50;65.00;;;;;;5051282;28;20484;-78
2022/01/13 02:12:14;;;;;;;20.30;11.10;;;2.60;65.10;;;;;;5051400;28;20024;-77
2022/01/13 02:14:57;;;;;;;6.75;5.20;;;2.60;64.80;;;;;;5033345;28;20120;-77
2022/01/13 02:17:26;;;;;;;3.40;3.10;;;2.50;63.70;;;;;;5034386;28;20028;-77
2022/01/13 02:19:54;;;;;;;2.57;2.37;;;2.50;64.10;;;;;;5052714;28;20049;-77
2022/01/13 02:22:22;;;;;;;2.70;2.10;;;2.50;64.30;;;;;;5052536;28;20036;-77
2022/01/13 02:24:48;;;;;;;3.20;2.00;;;2.40;65.00;;;;;;5034332;28;20029;-77
2022/01/13 02:27:14;;;;;;;3.60;1.60;;;2.40;64.80;;;;;;5052240;28;20035;-78
2022/01/13 02:29:40;;;;;;;1.43;1.33;;;2.40;64.90;;;;;;5052133;28;20513;-77
2022/01/13 02:32:07;;;;;;;1.77;1.50;;;2.30;64.60;;;;;;5034129;28;20021;-77
2022/01/13 02:34:33;;;;;;;1.67;1.57;;;2.30;64.60;;;;;;5051899;28;20036;-77
2022/01/13 02:36:59;;;;;;;2.50;1.93;;;2.30;64.70;;;;;;5052090;28;20025;-77
2022/01/13 02:39:29;;;;;;;1.63;1.30;;;2.30;64.70;;;;;;5051990;28;20036;-77
2022/01/13 02:41:57;;;;;;;1.43;1.30;;;2.30;64.80;;;;;;5033891;28;20052;-77
2022/01/13 02:44:24;;;;;;;1.93;1.70;;;2.30;65.30;;;;;;5051715;28;20029;-77
2022/01/13 02:49:20;;;;;;;1.70;1.60;;;2.30;65.90;;;;;;5051799;28;20031;-77
2022/01/13 02:51:52;;;;;;;2.73;1.27;;;2.30;65.80;;;;;;5051585;28;20079;-77
2022/01/13 02:54:18;;;;;;;1.90;1.63;;;2.30;66.10;;;;;;5051015;28;20372;-77
2022/01/13 02:56:44;;;;;;;1.70;1.60;;;2.20;67.20;;;;;;5051503;28;20111;-77
2022/01/13 02:59:11;;;;;;;1.50;1.40;;;2.20;66.70;;;;;;5051951;28;20474;-77
2022/01/13 03:01:38;;;;;;;1.30;1.30;;;2.20;66.70;;;;;;5051709;28;20032;-77
2022/01/13 03:04:07;;;;;;;1.60;1.50;;;2.20;66.70;;;;;;5033662;28;20048;-77
2022/01/13 03:06:34;;;;;;;2.93;1.63;;;2.10;67.10;;;;;;5051647;28;20402;-77
2022/01/13 03:09:04;;;;;;;2.17;1.83;;;2.10;67.70;;;;;;5051664;28;20047;-77
2022/01/13 03:11:35;;;;;;;4.00;2.03;;;2.00;67.00;;;;;;5051494;28;20029;-77
2022/01/13 03:14:06;;;;;;;1.85;1.75;;;2.10;67.00;;;;;;5051759;28;20021;-77
2022/01/13 03:16:32;;;;;;;3.10;1.37;;;2.00;66.50;;;;;;5051426;28;20025;-77
2022/01/13 03:18:58;;;;;;;1.87;1.77;;;2.00;66.40;;;;;;5051332;28;20021;-78
2022/01/13 03:21:23;;;;;;;1.70;1.53;;;2.00;67.00;;;;;;5050688;28;20028;-77
2022/01/13 03:23:50;;;;;;;1.77;1.40;;;2.00;67.10;;;;;;5013932;28;20151;-77
2022/01/13 03:26:16;;;;;;;1.57;1.33;;;2.00;67.50;;;;;;5031351;28;20029;-77
2022/01/13 03:28:52;;;;;;;1.97;1.50;;;1.90;67.80;;;;;;5031371;28;20030;-77
2022/01/13 03:31:19;;;;;;;1.73;1.53;;;1.90;68.00;;;;;;5013675;28;20493;-77
2022/01/13 03:33:45;;;;;;;2.10;1.57;;;1.90;67.40;;;;;;5013712;28;20168;-78
2022/01/13 03:36:11;;;;;;;2.80;1.80;;;1.90;67.70;;;;;;5031366;28;20510;-77
2022/01/13 03:38:38;;;;;;;1.67;1.57;;;1.90;67.80;;;;;;5031439;28;20030;-77
2022/01/13 03:41:03;;;;;;;1.50;1.40;;;1.90;67.00;;;;;;5013363;28;20491;-78
2022/01/13 03:43:29;;;;;;;4.07;1.90;;;1.90;66.40;;;;;;5031414;28;20026;-77
2022/01/13 03:45:55;;;;;;;2.50;1.80;;;1.90;66.10;;;;;;5031078;28;20049;-78
2022/01/13 03:48:21;;;;;;;3.60;1.70;;;1.90;66.70;;;;;;5031076;28;20030;-77
2022/01/13 03:50:47;;;;;;;1.60;1.50;;;1.90;66.90;;;;;;5031085;28;20025;-77
2022/01/13 03:53:28;;;;;;;3.77;2.30;;;1.90;67.00;;;;;;5028957;28;20021;-77
2022/01/13 03:56:31;;;;;;;2.53;2.03;;;1.90;67.70;;;;;;5050998;28;20025;-78
2022/01/13 03:59:33;;;;;;;3.10;1.90;;;1.90;67.50;;;;;;5050917;28;20025;-77
2022/01/13 04:02:03;;;;;;;2.65;2.38;;;1.90;67.00;;;;;;5050927;28;20032;-77
2022/01/13 04:04:32;;;;;;;3.03;1.63;;;1.90;66.80;;;;;;5050922;28;20029;-78
2022/01/13 04:07:06;;;;;;;2.37;2.13;;;1.90;67.10;;;;;;5054612;28;20021;-78
2022/01/13 04:09:35;;;;;;;2.43;2.00;;;1.90;67.90;;;;;;5036537;28;20124;-77
2022/01/13 04:12:04;;;;;;;2.50;2.30;;;1.90;68.30;;;;;;5054481;28;20364;-78
2022/01/13 04:14:44;;;;;;;2.53;2.03;;;1.80;68.50;;;;;;5054638;28;20047;-77
2022/01/13 04:17:15;;;;;;;6.03;2.60;;;1.90;68.90;;;;;;5054604;28;20025;-77
2022/01/13 04:19:42;;;;;;;2.80;2.17;;;1.80;68.70;;;;;;5054296;28;20082;-77
2022/01/13 04:22:09;;;;;;;2.00;1.87;;;1.80;69.10;;;;;;5047415;28;20028;-78
2022/01/13 04:24:36;;;;;;;4.00;2.47;;;1.80;69.20;;;;;;5024830;28;20017;-77
2022/01/13 04:27:03;;;;;;;3.03;2.53;;;1.80;69.30;;;;;;5036441;28;20033;-77
2022/01/13 04:29:41;;;;;;;2.57;2.30;;;1.90;69.30;;;;;;5054205;28;20032;-77
2022/01/13 04:32:07;;;;;;;3.00;2.40;;;1.80;68.80;;;;;;5054280;28;20529;-77
2022/01/13 04:34:34;;;;;;;2.63;2.40;;;1.80;69.00;;;;;;5054160;28;20368;-77
2022/01/13 04:37:01;;;;;;;2.63;2.43;;;1.80;69.00;;;;;;5053978;28;20065;-77
2022/01/13 04:39:31;;;;;;;4.27;2.30;;;1.80;69.10;;;;;;5054006;28;20013;-77
2022/01/13 04:41:58;;;;;;;1.97;1.83;;;1.80;69.30;;;;;;5053835;28;20033;-78
2022/01/13 04:44:25;;;;;;;2.90;2.33;;;1.80;69.70;;;;;;5054091;28;20036;-77
2022/01/13 04:46:53;;;;;;;3.20;2.57;;;1.70;70.30;;;;;;5053575;28;20048;-78
2022/01/13 04:49:20;;;;;;;2.37;2.17;;;1.70;70.20;;;;;;5035975;28;20017;-78
2022/01/13 04:51:48;;;;;;;3.00;2.30;;;1.60;70.50;;;;;;5053732;28;20501;-77
2022/01/13 04:54:15;;;;;;;2.30;2.10;;;1.60;70.60;;;;;;5036014;28;20449;-77
2022/01/13 04:57:04;;;;;;;4.00;2.50;;;1.60;70.30;;;;;;5053616;28;20036;-77
2022/01/13 04:59:30;;;;;;;3.00;2.00;;;1.60;70.30;;;;;;5053668;28;20557;-77
2022/01/13 05:01:55;;;;;;;3.10;2.53;;;1.60;70.60;;;;;;5035576;28;20029;-77
2022/01/13 05:04:22;;;;;;;3.67;2.37;;;1.60;70.30;;;;;;5053826;28;20386;-77
2022/01/13 05:06:47;;;;;;;3.47;2.50;;;1.60;70.30;;;;;;5053623;28;20053;-78
2022/01/13 05:09:13;;;;;;;3.50;2.57;;;1.60;70.30;;;;;;5035566;28;20075;-77
2022/01/13 05:11:39;;;;;;;4.43;2.90;;;1.60;70.00;;;;;;5035501;28;20029;-77
2022/01/13 05:14:05;;;;;;;3.13;2.53;;;1.60;70.20;;;;;;5035382;28;20360;-77
2022/01/13 05:17:34;;;;;;;2.97;2.33;;;1.60;70.80;;;;;;5034782;28;20029;-77
2022/01/13 05:19:29;;;;;;;3.40;2.47;;;1.60;70.80;;;;;;5044934;28;20041;-77
2022/01/13 05:22:15;;;;;;;4.27;2.77;;;1.60;70.80;;;;;;5053205;28;20048;-78
2022/01/13 05:24:42;;;;;;;4.23;2.63;;;1.60;71.10;;;;;;5033292;28;20498;-78
2022/01/13 05:27:08;;;;;;;5.37;2.60;;;1.60;71.00;;;;;;5053057;28;20200;-77
2022/01/13 05:29:34;;;;;;;3.77;3.27;;;1.60;70.60;;;;;;5035208;28;20505;-78
2022/01/13 05:31:59;;;;;;;3.13;2.33;;;1.60;70.90;;;;;;5053251;28;20056;-77
2022/01/13 05:34:25;;;;;;;5.53;2.67;;;1.60;70.70;;;;;;5052901;28;20025;-77
2022/01/13 05:36:51;;;;;;;4.70;3.13;;;1.60;70.90;;;;;;5035122;28;20048;-78
2022/01/13 05:39:17;;;;;;;2.80;2.60;;;1.60;70.70;;;;;;5035119;28;20025;-78
2022/01/13 05:41:42;;;;;;;4.57;3.20;;;1.60;70.90;;;;;;5052936;28;20036;-77
2022/01/13 05:44:08;;;;;;;3.73;2.97;;;1.60;70.80;;;;;;5052871;28;20115;-77
2022/01/13 05:46:34;;;;;;;3.37;3.03;;;1.60;70.50;;;;;;5052441;28;20056;-77
2022/01/13 05:48:59;;;;;;;6.70;2.80;;;1.60;70.60;;;;;;5052808;28;20053;-77
2022/01/13 05:51:25;;;;;;;3.57;2.70;;;1.60;70.80;;;;;;5033797;28;20079;-78
2022/01/13 05:53:51;;;;;;;4.17;2.63;;;1.60;70.80;;;;;;5032572;28;20033;-77
2022/01/13 05:56:17;;;;;;;4.07;2.83;;;1.60;70.70;;;;;;5032629;28;20032;-77
2022/01/13 05:58:42;;;;;;;3.63;2.80;;;1.60;71.50;;;;;;5032728;28;20112;-77
2022/01/13 06:01:08;;;;;;;4.13;3.17;;;1.70;70.40;;;;;;5032423;28;20161;-77
2022/01/13 06:03:34;;;;;;;3.03;2.80;;;1.70;70.50;;;;;;5032466;28;20079;-77
2022/01/13 06:06:00;;;;;;;3.83;2.90;;;1.60;70.70;;;;;;5032604;28;20025;-77
2022/01/13 06:08:25;;;;;;;6.70;3.37;;;1.60;70.70;;;;;;5014416;28;20032;-78
2022/01/13 06:10:51;;;;;;;6.03;3.10;;;1.60;71.00;;;;;;5032452;28;20080;-78
2022/01/13 06:13:17;;;;;;;5.20;3.20;;;1.70;71.10;;;;;;5014792;28;20072;-77
2022/01/13 06:15:43;;;;;;;3.80;3.10;;;1.60;71.20;;;;;;5014571;28;20404;-77
2022/01/13 06:18:15;;;;;;;3.30;3.00;;;1.60;70.70;;;;;;5032303;28;20471;-78
2022/01/13 06:20:41;;;;;;;;;;;1.70;70.70;;;;;;5042251;28;20398;-78
2022/01/13 06:23:07;;;;;;;6.93;3.43;;;1.70;70.30;;;;;;5052080;28;19905;-77
2022/01/13 06:25:37;;;;;;;9.60;3.80;;;1.70;69.70;;;;;;5034059;28;20040;-78
2022/01/13 06:28:04;;;;;;;7.37;4.07;;;1.70;69.80;;;;;;5051351;28;20091;-77
2022/01/13 06:30:32;;;;;;;6.23;3.43;;;1.70;69.70;;;;;;5033556;28;20047;-77
2022/01/13 06:32:58;;;;;;;4.87;3.93;;;1.80;70.30;;;;;;5034160;28;20433;-78
2022/01/13 06:35:24;;;;;;;4.97;3.60;;;1.80;70.20;;;;;;5051727;28;20033;-77
2022/01/13 06:37:50;;;;;;;7.30;3.73;;;1.80;70.50;;;;;;5051773;28;20083;-77
2022/01/13 06:40:16;;;;;;;4.37;3.27;;;1.80;70.60;;;;;;5051931;28;20017;-78
2022/01/13 06:42:43;;;;;;;9.83;3.93;;;1.80;70.80;;;;;;5051719;28;20013;-77
2022/01/13 06:45:10;;;;;;;6.80;3.83;;;1.80;70.90;;;;;;5051502;28;20057;-78
2022/01/13 06:47:40;;;;;;;6.33;3.80;;;1.80;71.20;;;;;;5051710;28;20025;-77
2022/01/13 06:50:08;;;;;;;4.27;3.87;;;1.80;71.90;;;;;;5051631;28;20025;-76
2022/01/13 06:52:35;;;;;;;5.13;3.90;;;1.80;71.80;;;;;;5041356;28;20025;-78
2022/01/13 06:55:00;;;;;;;5.80;4.13;;;1.80;71.50;;;;;;5031592;28;20179;-77
2022/01/13 06:57:26;;;;;;;6.27;4.10;;;1.80;71.60;;;;;;5031745;28;20032;-76
2022/01/13 06:59:52;;;;;;;8.20;4.57;;;1.80;71.70;;;;;;5031598;28;20041;-78
2022/01/13 07:02:17;;;;;;;9.90;5.30;;;1.70;71.80;;;;;;5031763;28;20057;-78
2022/01/13 07:04:43;;;;;;;6.43;4.70;;;1.70;72.20;;;;;;5031523;28;20025;-77
2022/01/13 07:07:10;;;;;;;6.03;4.13;;;1.70;72.20;;;;;;5013768;28;20040;-77
2022/01/13 07:09:35;;;;;;;8.93;5.10;;;1.70;72.30;;;;;;5031557;28;20551;-78
2022/01/13 07:12:01;;;;;;;7.57;4.63;;;1.70;71.90;;;;;;5031699;28;20112;-77
2022/01/13 07:14:27;;;;;;;8.80;5.07;;;1.70;71.90;;;;;;5013777;28;20372;-77
2022/01/13 07:16:52;;;;;;;11.57;5.33;;;1.70;72.20;;;;;;5031565;28;20034;-77
2022/01/13 07:19:18;;;;;;;8.60;5.20;;;1.70;72.10;;;;;;5013572;28;20529;-77
2022/01/13 07:21:45;;;;;;;9.03;5.13;;;1.80;72.20;;;;;;5034835;28;20588;-77
2022/01/13 07:24:11;;;;;;;7.67;5.13;;;1.80;72.10;;;;;;5033547;28;20036;-77
2022/01/13 07:26:37;;;;;;;5.43;4.40;;;1.80;72.10;;;;;;5051004;28;20040;-77
2022/01/13 07:29:05;;;;;;;6.73;4.50;;;1.80;72.20;;;;;;5051225;28;20044;-78
2022/01/13 07:31:30;;;;;;;5.63;4.23;;;1.80;72.20;;;;;;5051702;28;20025;-77
2022/01/13 07:33:56;;;;;;;6.30;4.53;;;1.80;72.10;;;;;;5052380;28;20427;-77
2022/01/13 07:36:22;;;;;;;7.97;4.53;;;1.90;72.10;;;;;;5052520;28;20025;-77
2022/01/13 07:38:48;;;;;;;9.90;4.87;;;1.90;72.00;;;;;;5034632;28;20029;-77
2022/01/13 07:41:14;;;;;;;6.33;4.80;;;1.90;71.90;;;;;;5055200;28;20031;-78
2022/01/13 07:43:43;;;;;;;7.53;5.10;;;1.90;71.90;;;;;;5056530;28;20025;-78
2022/01/13 07:46:09;;;;;;;12.33;5.20;;;1.90;72.30;;;;;;5055618;28;20048;-77
2022/01/13 07:48:35;;;;;;;9.90;5.40;;;2.00;72.50;;;;;;5055799;28;20090;-77
2022/01/13 07:51:00;;;;;;;10.43;5.30;;;1.90;72.10;;;;;;5056033;28;20025;-77
2022/01/13 07:53:26;;;;;;;6.27;4.60;;;1.90;72.40;;;;;;5038303;28;20032;-77
2022/01/13 07:55:52;;;;;;;7.23;4.90;;;1.90;72.40;;;;;;5056245;28;20032;-77
2022/01/13 07:58:17;;;;;;;10.57;4.67;;;1.90;72.20;;;;;;5055962;28;20039;-78
2022/01/13 08:00:43;;;;;;;7.00;4.90;;;2.00;72.30;;;;;;5038299;28;20052;-77
2022/01/13 08:03:09;;;;;;;6.73;4.63;;;2.10;72.40;;;;;;5056043;28;20028;-77
2022/01/13 08:05:35;;;;;;;11.00;5.90;;;2.20;72.30;;;;;;5056086;28;20171;-77
2022/01/13 08:08:00;;;;;;;9.53;6.37;;;2.20;72.80;;;;;;5055941;28;20453;-77
2022/01/13 08:10:26;;;;;;;9.67;6.27;;;2.20;73.90;;;;;;5056040;28;20540;-78
2022/01/13 08:12:52;;;;;;;10.23;6.03;;;2.20;73.90;;;;;;5055965;28;20497;-77
2022/01/13 08:15:18;;;;;;;10.37;6.13;;;2.20;74.20;;;;;;5055522;28;20025;-77
2022/01/13 08:20:32;;;;;;;9.87;6.17;;;2.30;73.40;;;;;;5054664;28;20051;-73
2022/01/13 08:22:58;;;;;;;15.27;6.60;;;2.40;73.30;;;;;;5054459;28;20021;-73
2022/01/13 08:25:24;;;;;;;11.20;5.90;;;2.40;73.00;;;;;;5054611;28;20043;-72
2022/01/13 08:27:50;;;;;;;10.90;6.40;;;2.50;73.30;;;;;;5054410;28;20029;-73
2022/01/13 08:30:16;;;;;;;11.57;6.43;;;2.50;73.20;;;;;;5054890;28;20024;-73
2022/01/13 08:32:42;;;;;;;9.17;5.50;;;2.50;73.20;;;;;;5037546;28;20398;-73
2022/01/13 08:35:09;;;;;;;9.27;5.90;;;2.60;73.80;;;;;;5055311;28;20155;-73
2022/01/13 08:37:35;;;;;;;14.27;5.87;;;2.60;74.20;;;;;;5055092;28;20021;-73
2022/01/13 08:40:05;;;;;;;16.90;6.30;;;2.60;74.50;;;;;;5054872;28;20116;-73
2022/01/13 08:42:32;;;;;;;12.07;7.40;;;2.70;75.00;;;;;;5055166;28;20082;-72
2022/01/13 08:44:59;;;;;;;11.37;6.83;;;2.70;75.30;;;;;;5055011;28;20037;-73
2022/01/13 08:47:24;;;;;;;16.90;7.33;;;2.80;75.30;;;;;;5054746;28;20033;-72
2022/01/13 08:49:50;;;;;;;13.37;7.73;;;2.80;75.50;;;;;;5054668;28;20028;-73
2022/01/13 08:52:16;;;;;;;14.50;8.27;;;2.80;75.80;;;;;;5052298;28;20032;-73
2022/01/13 08:54:45;;;;;;;17.23;8.20;;;2.80;76.30;;;;;;5051532;28;20025;-73
2022/01/13 08:57:11;;;;;;;21.57;8.20;;;2.90;75.70;;;;;;5032549;28;20029;-73
2022/01/13 08:59:37;;;;;;;19.30;9.00;;;3.00;75.80;;;;;;5050596;28;20043;-73
2022/01/13 09:02:02;;;;;;;12.40;7.50;;;3.00;76.10;;;;;;5050826;28;20025;-73
2022/01/13 09:04:28;;;;;;;14.87;7.60;;;3.00;76.50;;;;;;5050723;28;20079;-72
2022/01/13 09:06:54;;;;;;;12.43;7.30;;;3.10;76.30;;;;;;5050528;28;20022;-73
2022/01/13 09:09:20;;;;;;;16.87;7.73;;;3.10;76.10;;;;;;5051677;28;20025;-73
2022/01/13 09:11:46;;;;;;;15.07;9.07;;;3.20;76.30;;;;;;5035354;28;20025;-73
2022/01/13 09:14:13;;;;;;;16.53;8.10;;;3.30;76.60;;;;;;5053351;28;20025;-73
2022/01/13 09:16:44;;;;;;;15.27;9.27;;;3.40;76.40;;;;;;5053456;28;20063;-72
2022/01/13 09:19:12;;;;;;;15.37;8.60;;;3.40;76.40;;;;;;5053251;28;20116;-73
2022/01/13 09:21:42;;;;;;;16.90;8.67;;;3.40;76.70;;;;;;5050303;28;20021;-73
2022/01/13 09:24:17;;;;;;;12.13;8.00;;;3.50;76.80;;;;;;5048165;28;20394;-73
2022/01/13 09:26:43;;;;;;;13.37;8.03;;;3.50;77.00;;;;;;5035169;28;20065;-73
2022/01/13 09:29:10;;;;;;;17.73;8.13;;;3.60;77.20;;;;;;5052893;28;20478;-73
2022/01/13 09:31:39;;;;;;;11.93;7.50;;;3.60;77.50;;;;;;5052915;28;20025;-73
2022/01/13 09:34:06;;;;;;;13.17;7.37;;;3.70;77.00;;;;;;5035050;28;20043;-72
2022/01/13 09:36:32;;;;;;;13.07;7.50;;;3.80;76.20;;;;;;5053189;28;20056;-73
2022/01/13 09:39:01;;;;;;;13.13;7.00;;;3.80;75.50;;;;;;5052838;28;20111;-73
2022/01/13 09:41:30;;;;;;;12.33;7.40;;;3.80;74.90;;;;;;5052704;28;20060;-73
2022/01/13 09:43:57;;;;;;;12.40;6.83;;;3.90;73.80;;;;;;5052744;28;20021;-73
2022/01/13 09:46:26;;;;;;;11.53;7.67;;;3.90;73.60;;;;;;5052566;28;20051;-73
2022/01/13 09:48:53;;;;;;;19.23;8.37;;;4.00;73.10;;;;;;5052852;28;20039;-73
2022/01/13 09:51:22;;;;;;;12.40;7.97;;;4.00;73.90;;;;;;5034540;28;20025;-72
2022/01/13 09:53:48;;;;;;;13.67;8.03;;;4.10;74.00;;;;;;5014947;28;20025;-73
2022/01/13 09:56:13;;;;;;;13.13;7.57;;;4.20;73.20;;;;;;5032739;28;20021;-72
2022/01/13 09:58:43;;;;;;;10.50;7.70;;;4.40;73.50;;;;;;5014728;28;20029;-72
2022/01/13 10:01:10;;;;;;;13.50;8.43;;;4.40;73.50;;;;;;5014742;28;20026;-73
2022/01/13 10:03:37;;;;;;;12.73;7.30;;;4.40;72.20;;;;;;5014500;28;20053;-73
2022/01/13 10:06:10;;;;;;;12.07;7.80;;;4.50;71.90;;;;;;5032449;28;20406;-73
2022/01/13 10:08:47;;;;;;;14.35;7.88;;;4.60;70.50;;;;;;5033164;28;20107;-73
2022/01/13 10:11:33;;;;;;;11.93;7.30;;;4.60;70.60;;;;;;5034178;28;20075;-73
2022/01/13 10:14:10;;;;;;;13.23;7.93;;;4.50;72.30;;;;;;5052134;28;20102;-73
2022/01/13 10:16:42;;;;;;;14.95;8.68;;;4.50;73.10;;;;;;5034331;28;20029;-72
2022/01/13 10:19:28;;;;;;;11.02;7.13;;;4.50;73.30;;;;;;5052115;28;20021;-72
2022/01/13 10:21:59;;;;;;;14.87;8.03;;;4.50;73.80;;;;;;5029363;28;20128;-72
2022/01/13 10:24:27;;;;;;;12.20;7.60;;;4.60;75.90;;;;;;5032298;28;20021;-73
2022/01/13 10:27:00;;;;;;;13.95;7.80;;;4.70;72.40;;;;;;5032078;28;20363;-73
2022/01/13 10:29:41;;;;;;;14.23;8.00;;;4.90;72.10;;;;;;5032026;28;20021;-72
2022/01/13 10:32:09;;;;;;;14.63;8.03;;;4.90;72.30;;;;;;5031938;28;20033;-73
2022/01/13 10:34:37;;;;;;;13.95;8.10;;;5.00;72.80;;;;;;5031888;28;20507;-72
2022/01/13 10:37:21;;;;;;;15.13;8.73;;;5.00;73.30;;;;;;5031833;28;20029;-72
2022/01/13 10:39:56;;;;;;;17.73;9.02;;;5.10;73.00;;;;;;5031788;28;20479;-73
2022/01/13 10:45:20;;;;;;;15.73;8.55;;;5.20;74.20;;;;;;5031738;28;20053;-73
2022/01/13 10:47:58;;;;;;;15.68;9.38;;;5.30;74.40;;;;;;5031726;28;20479;-72
2022/01/13 10:50:33;;;;;;;18.55;9.32;;;5.30;73.90;;;;;;5031558;28;20022;-72
2022/01/13 10:53:13;;;;;;;19.67;9.25;;;5.30;73.70;;;;;;5031469;28;20029;-72
2022/01/13 10:55:42;;;;;;;15.95;9.32;;;5.30;74.50;;;;;;5031584;28;20021;-73
2022/01/13 10:58:09;;;;;;;14.82;8.98;;;5.40;74.10;;;;;;5014875;28;20033;-73
2022/01/13 11:00:36;;;;;;;18.98;9.10;;;5.40;74.60;;;;;;5032412;28;20530;-72
2022/01/13 11:03:16;;;;;;;17.90;9.57;;;5.40;75.40;;;;;;5032320;28;20025;-73
2022/01/13 11:05:47;;;;;;;20.27;9.40;;;5.40;75.10;;;;;;5032529;28;20078;-73
2022/01/13 11:08:31;;;;;;;16.33;9.20;;;5.50;74.90;;;;;;5014559;28;20476;-72
2022/01/13 11:10:58;;;;;;;21.55;8.88;;;5.50;74.90;;;;;;5032176;28;20026;-73
2022/01/13 11:13:27;;;;;;;16.27;9.38;;;5.60;74.90;;;;;;5014958;28;20361;-73
2022/01/13 11:15:55;;;;;;;12.70;8.43;;;5.70;73.70;;;;;;5036784;28;20037;-73
2022/01/13 11:18:27;;;;;;;16.65;8.70;;;5.70;72.70;;;;;;5038064;28;20021;-72
2022/01/13 11:20:54;;;;;;;16.33;8.60;;;5.80;72.00;;;;;;5038069;28;20503;-77
2022/01/13 11:23:21;;;;;;;17.70;8.65;;;5.80;71.60;;;;;;5038132;28;20025;-78
2022/01/13 11:25:51;;;;;;;18.15;9.75;;;5.90;72.10;;;;;;5037976;28;20026;-77
2022/01/13 11:28:17;;;;;;;18.35;9.23;;;6.00;73.20;;;;;;5050400;28;20028;-78
2022/01/13 11:30:44;;;;;;;17.40;8.95;;;6.10;72.30;;;;;;5039954;28;20025;-78
2022/01/13 11:33:10;;;;;;;17.65;9.50;;;6.10;71.70;;;;;;5058024;28;20017;-77
2022/01/13 11:35:43;;;;;;;18.38;8.68;;;6.10;71.30;;;;;;5057840;28;20494;-78
2022/01/13 11:38:09;;;;;;;20.45;10.30;;;6.20;71.40;;;;;;5057829;28;20021;-77
2022/01/13 11:40:41;;;;;;;15.95;8.57;;;6.20;70.60;;;;;;5057879;28;20116;-78
2022/01/13 11:43:21;;;;;;;17.95;8.60;;;6.30;71.50;;;;;;5057789;28;20047;-78
2022/01/13 11:45:47;;;;;;;16.48;8.77;;;6.30;70.70;;;;;;5057770;28;20053;-77
2022/01/13 11:48:19;;;;;;;19.45;9.40;;;6.40;68.80;;;;;;5057858;28;20475;-77
2022/01/13 11:50:51;;;;;;;13.35;8.65;;;6.40;71.00;;;;;;5057775;28;20048;-77
2022/01/13 11:53:27;;;;;;;15.77;8.60;;;6.40;72.00;;;;;;5041522;28;20014;-77
2022/01/13 11:56:02;;;;;;;13.85;8.38;;;6.50;68.60;;;;;;5037691;28;20049;-78
2022/01/13 11:58:37;;;;;;;16.38;8.55;;;6.50;68.20;;;;;;5037564;28;20486;-77
2022/01/13 12:01:17;;;;;;;13.68;8.38;;;6.50;69.20;;;;;;5037710;28;20143;-78
2022/01/13 12:03:57;;;;;;;10.15;7.25;;;6.60;70.20;;;;;;5037550;28;20618;-77
2022/01/13 12:06:43;;;;;;;15.95;8.02;;;6.60;67.70;;;;;;5037754;28;20033;-78
2022/01/13 12:09:32;;;;;;;10.43;7.43;;;6.70;66.20;;;;;;5037763;28;20486;-78
2022/01/13 12:11:58;;;;;;;14.43;8.65;;;6.80;66.60;;;;;;5037601;28;20068;-77
2022/01/13 12:16:55;;;;;;;14.93;7.90;;;6.90;67.00;;;;;;5037595;28;20037;-78
2022/01/13 12:19:38;;;;;;;17.17;7.88;;;6.90;67.60;;;;;;5049864;28;20021;-78
2022/01/13 12:22:14;;;;;;;12.10;7.72;;;7.00;66.90;;;;;;5057506;28;20545;-78
2022/01/13 12:24:52;;;;;;;17.13;7.55;;;7.10;66.30;;;;;;5057468;28;20498;-78
2022/01/13 12:27:21;;;;;;;12.63;7.90;;;7.10;67.20;;;;;;5037408;28;20368;-77
2022/01/13 12:30:12;;;;;;;10.85;6.55;;;7.10;65.00;;;;;;5054347;28;20032;-77
2022/01/13 12:32:51;;;;;;;10.05;7.00;;;7.10;66.10;;;;;;5029726;28;20429;-78
2022/01/13 12:35:36;;;;;;;17.35;7.20;;;7.10;65.30;;;;;;5054325;28;20532;-77
2022/01/13 12:38:13;;;;;;;15.07;7.30;;;7.20;63.30;;;;;;5054082;28;20056;-77
2022/01/13 12:40:44;;;;;;;14.23;7.15;;;7.20;62.70;;;;;;5054067;28;20025;-77
2022/01/13 12:43:36;;;;;;;16.40;7.55;;;7.20;63.50;;;;;;5054172;28;20047;-77
2022/01/13 12:46:04;;;;;;;13.77;8.13;;;7.20;64.30;;;;;;5036153;28;20048;-77
2022/01/13 12:48:31;;;;;;;16.20;8.43;;;7.30;63.90;;;;;;5054980;28;20028;-77
2022/01/13 12:50:58;;;;;;;13.45;7.78;;;7.30;62.20;;;;;;5055016;28;20505;-77
2022/01/13 12:53:28;;;;;;;12.27;7.00;;;7.20;63.60;;;;;;5055022;28;20048;-77
2022/01/13 12:55:55;;;;;;;10.90;7.18;;;7.30;63.00;;;;;;5055072;28;20406;-77
2022/01/13 12:58:23;;;;;;;12.32;6.97;;;7.30;63.40;;;;;;5054857;28;20032;-77
2022/01/13 13:00:49;;;;;;;10.40;6.72;;;7.30;64.00;;;;;;5053846;28;20029;-77
2022/01/13 13:03:15;;;;;;;13.63;7.03;;;7.40;64.10;;;;;;5054075;28;20502;-77
2022/01/13 13:05:46;;;;;;;8.43;5.95;;;7.40;61.60;;;;;;5053820;28;20502;-77
2022/01/13 13:08:16;;;;;;;8.13;5.90;;;7.50;62.10;;;;;;5035786;28;20029;-76
2022/01/13 13:10:44;;;;;;;13.57;6.82;;;7.50;60.40;;;;;;5053724;28;20064;-77
2022/01/13 13:13:14;;;;;;;9.73;6.75;;;7.50;60.10;;;;;;5054254;28;20028;-76
2022/01/13 13:15:40;;;;;;;11.93;6.85;;;7.60;60.50;;;;;;5054414;28;20379;-77
2022/01/13 13:18:07;;;;;;;12.90;6.82;;;7.50;62.20;;;;;;5054478;28;20124;-77
2022/01/13 13:20:35;;;;;;;11.45;5.78;;;7.50;61.80;;;;;;5052941;28;20029;-76